This is the latest recevied weather packets stored in our database for station/object IU1OLT-5. If no packets are shown the sender has not sent any weather packets the latest 1 day(s).
| Time | Temp. | Humidity | Pressure | Rain* | Wind** | Luminosity | Snow |
|---|---|---|---|---|---|---|---|
| 1778027286 | 12.78° C | 99% | 1010.7 hPa | 0 mm | 1.79 m/s, 18° | 0 W/m² | - |
| 1778026386 | 12.78° C | 99% | 1010.9 hPa | 3.05 mm | 0 m/s | 0 W/m² | - |
| 1778025486 | 13.33° C | 98% | 1010.8 hPa | 23.88 mm | 1.34 m/s, 33° | 0 W/m² | - |
| 1778024585 | 14.44° C | 89% | 1011.1 hPa | 0 mm | 2.68 m/s, 9° | 0 W/m² | - |
| 1778023685 | 13.33° C | 93% | 1011.1 hPa | 0 mm | 2.68 m/s, 24° | 0 W/m² | - |
| 1778022785 | 13.89° C | 92% | 1011.4 hPa | 0 mm | 1.79 m/s, 26° | 0 W/m² | - |
| 1778021884 | 13.33° C | 94% | 1011.6 hPa | 0 mm | 2.68 m/s, 358° | 0 W/m² | - |
| 1778020984 | 13.89° C | 92% | 1012 hPa | 0 mm | 0.45 m/s, 329° | 0 W/m² | - |
| 1778020084 | 13.89° C | 92% | 1012.1 hPa | 0 mm | 1.79 m/s, 302° | 0 W/m² | - |
| 1778019184 | 14.44° C | 91% | 1012.5 hPa | 0 mm | 2.24 m/s, 31° | 0 W/m² | - |
| 1778018283 | 13.89° C | 91% | 1012.1 hPa | 0 mm | 1.79 m/s, 156° | 0 W/m² | - |
| 1778017383 | 13.89° C | 93% | 1012.5 hPa | 0 mm | 1.34 m/s, 36° | 0 W/m² | - |
| 1778016483 | 13.89° C | 93% | 1012.5 hPa | 0 mm | 0.89 m/s, 71° | 0 W/m² | - |
| 1778015583 | 13.89° C | 96% | 1012.4 hPa | 0 mm | 0.89 m/s, 22° | 0 W/m² | - |
| 1778014682 | 13.89° C | 96% | 1012.7 hPa | 0 mm | 0.89 m/s, 346° | 0 W/m² | - |
| 1778013782 | 13.89° C | 97% | 1012.8 hPa | 0 mm | 0.89 m/s, 66° | 0 W/m² | - |
| 1778012882 | 14.44° C | 96% | 1012.9 hPa | 0 mm | 0.89 m/s, 98° | 0 W/m² | - |
| 1778011981 | 15° C | 92% | 1013.2 hPa | 0 mm | 0.45 m/s, 320° | 0 W/m² | - |
| 1778011081 | 15° C | 93% | 1013 hPa | 0 mm | 0.45 m/s, 227° | 0 W/m² | - |
| 1778010180 | 15° C | 95% | 1013 hPa | 0 mm | 1.34 m/s, 102° | 0 W/m² | - |
| 1778009280 | 15° C | 95% | 1012.8 hPa | 0 mm | 0.45 m/s, 173° | 0 W/m² | - |
| 1778008380 | 15° C | 95% | 1012.6 hPa | 0 mm | 0.89 m/s, 140° | 0 W/m² | - |
| 1778007480 | 15° C | 95% | 1012.5 hPa | 0 mm | 0.45 m/s, 258° | 0 W/m² | - |
| 1778006580 | 15° C | 96% | 1012.5 hPa | 0 mm | 2.24 m/s, 212° | 0 W/m² | - |
| 1778005679 | 15° C | 95% | 1012.7 hPa | 0 mm | 1.79 m/s, 228° | 2 W/m² | - |
* Rain latest hour (hover to see other rain measurements)
** Current wind speed in m/s (hover to see current wind gust speed)